sensor_id;sensor_type;location;lat;lon;timestamp;pressure;altitude;pressure_sealevel;temperature;humidity
21706;BME280;11014;53.076;18.208;2023-08-24T00:01:38;101438.50;;;23.73;49.86
21706;BME280;11014;53.076;18.208;2023-08-24T00:04:10;101436.53;;;23.59;50.48
21706;BME280;11014;53.076;18.208;2023-08-24T00:06:47;101444.91;;;23.49;50.56
21706;BME280;11014;53.076;18.208;2023-08-24T00:09:48;101443.50;;;23.52;51.02
21706;BME280;11014;53.076;18.208;2023-08-24T00:12:17;101433.00;;;23.35;50.89
21706;BME280;11014;53.076;18.208;2023-08-24T00:14:46;101441.91;;;23.27;51.28
21706;BME280;11014;53.076;18.208;2023-08-24T00:17:17;101443.06;;;23.21;51.73
21706;BME280;11014;53.076;18.208;2023-08-24T00:20:12;101435.09;;;23.25;51.83
21706;BME280;11014;53.076;18.208;2023-08-24T00:22:46;101426.78;;;23.11;52.20
21706;BME280;11014;53.076;18.208;2023-08-24T00:25:14;101429.56;;;23.06;52.28
21706;BME280;11014;53.076;18.208;2023-08-24T00:27:53;101427.94;;;23.05;52.14
21706;BME280;11014;53.076;18.208;2023-08-24T00:30:54;101426.97;;;23.15;52.54
21706;BME280;11014;53.076;18.208;2023-08-24T00:33:39;101435.03;;;23.06;52.53
21706;BME280;11014;53.076;18.208;2023-08-24T00:36:10;101440.69;;;23.33;52.06
21706;BME280;11014;53.076;18.208;2023-08-24T00:38:39;101439.41;;;23.07;52.62
21706;BME280;11014;53.076;18.208;2023-08-24T00:41:08;101434.00;;;23.02;53.08
21706;BME280;11014;53.076;18.208;2023-08-24T00:43:40;101450.44;;;23.02;53.65
21706;BME280;11014;53.076;18.208;2023-08-24T00:46:09;101453.47;;;23.00;54.03
21706;BME280;11014;53.076;18.208;2023-08-24T00:48:38;101456.75;;;23.02;54.19
21706;BME280;11014;53.076;18.208;2023-08-24T00:51:06;101455.34;;;23.05;55.02
21706;BME280;11014;53.076;18.208;2023-08-24T00:53:36;101453.94;;;23.08;54.90
21706;BME280;11014;53.076;18.208;2023-08-24T00:56:07;101453.38;;;23.11;54.78
21706;BME280;11014;53.076;18.208;2023-08-24T00:58:35;101453.63;;;23.09;55.22
21706;BME280;11014;53.076;18.208;2023-08-24T01:01:05;101447.06;;;23.10;55.36
21706;BME280;11014;53.076;18.208;2023-08-24T01:03:34;101451.47;;;23.06;55.28
21706;BME280;11014;53.076;18.208;2023-08-24T01:06:03;101450.72;;;23.00;55.77
21706;BME280;11014;53.076;18.208;2023-08-24T01:08:31;101450.00;;;22.95;56.11
21706;BME280;11014;53.076;18.208;2023-08-24T01:11:10;101448.94;;;22.91;56.20
21706;BME280;11014;53.076;18.208;2023-08-24T01:14:02;101459.91;;;22.91;56.50
21706;BME280;11014;53.076;18.208;2023-08-24T01:16:33;101457.34;;;22.76;56.60
21706;BME280;11014;53.076;18.208;2023-08-24T01:21:35;101465.69;;;22.61;57.28
21706;BME280;11014;53.076;18.208;2023-08-24T01:24:13;101462.94;;;22.61;57.31
21706;BME280;11014;53.076;18.208;2023-08-24T01:26:44;101461.38;;;22.55;57.16
21706;BME280;11014;53.076;18.208;2023-08-24T01:29:14;101463.59;;;22.53;57.32
21706;BME280;11014;53.076;18.208;2023-08-24T01:31:48;101459.00;;;22.48;57.89
21706;BME280;11014;53.076;18.208;2023-08-24T01:34:17;101467.53;;;22.41;57.67
21706;BME280;11014;53.076;18.208;2023-08-24T01:36:46;101469.25;;;22.32;58.07
21706;BME280;11014;53.076;18.208;2023-08-24T01:40:00;101470.84;;;22.38;58.16
21706;BME280;11014;53.076;18.208;2023-08-24T01:42:58;101465.28;;;22.49;57.13
21706;BME280;11014;53.076;18.208;2023-08-24T01:45:31;101463.63;;;22.19;57.70
21706;BME280;11014;53.076;18.208;2023-08-24T01:48:03;101471.13;;;22.08;58.16
21706;BME280;11014;53.076;18.208;2023-08-24T01:50:32;101469.50;;;22.02;58.26
21706;BME280;11014;53.076;18.208;2023-08-24T01:53:02;101472.88;;;21.94;58.49
21706;BME280;11014;53.076;18.208;2023-08-24T01:55:31;101467.97;;;21.86;58.94
21706;BME280;11014;53.076;18.208;2023-08-24T01:58:00;101472.91;;;21.84;59.21
21706;BME280;11014;53.076;18.208;2023-08-24T02:00:29;101470.47;;;21.82;59.04
21706;BME280;11014;53.076;18.208;2023-08-24T02:02:58;101467.19;;;21.80;59.17
21706;BME280;11014;53.076;18.208;2023-08-24T02:05:27;101471.88;;;21.80;59.42
21706;BME280;11014;53.076;18.208;2023-08-24T02:07:57;101463.09;;;21.78;59.29
21706;BME280;11014;53.076;18.208;2023-08-24T02:10:26;101464.78;;;21.74;59.56
21706;BME280;11014;53.076;18.208;2023-08-24T02:12:54;101463.19;;;21.68;59.68
21706;BME280;11014;53.076;18.208;2023-08-24T02:15:23;101466.50;;;21.65;59.79
21706;BME280;11014;53.076;18.208;2023-08-24T02:17:52;101459.16;;;21.60;59.46
21706;BME280;11014;53.076;18.208;2023-08-24T02:20:20;101468.72;;;21.58;59.72
21706;BME280;11014;53.076;18.208;2023-08-24T02:22:49;101467.66;;;21.54;59.98
21706;BME280;11014;53.076;18.208;2023-08-24T02:25:20;101462.75;;;21.51;59.83
21706;BME280;11014;53.076;18.208;2023-08-24T02:27:48;101465.00;;;21.44;59.76
21706;BME280;11014;53.076;18.208;2023-08-24T02:30:17;101460.69;;;21.33;59.66
21706;BME280;11014;53.076;18.208;2023-08-24T02:32:46;101461.78;;;21.26;60.25
21706;BME280;11014;53.076;18.208;2023-08-24T02:35:16;101456.66;;;21.20;59.91
21706;BME280;11014;53.076;18.208;2023-08-24T02:37:46;101460.50;;;21.14;60.03
21706;BME280;11014;53.076;18.208;2023-08-24T02:40:15;101471.47;;;21.09;59.97
21706;BME280;11014;53.076;18.208;2023-08-24T02:42:44;101463.53;;;21.02;60.32
21706;BME280;11014;53.076;18.208;2023-08-24T02:45:12;101465.19;;;20.98;60.30
21706;BME280;11014;53.076;18.208;2023-08-24T02:47:41;101464.09;;;20.94;60.18
21706;BME280;11014;53.076;18.208;2023-08-24T02:50:09;101461.38;;;20.89;60.30
21706;BME280;11014;53.076;18.208;2023-08-24T02:52:38;101460.84;;;20.82;60.85
21706;BME280;11014;53.076;18.208;2023-08-24T02:55:07;101465.25;;;20.78;60.87
21706;BME280;11014;53.076;18.208;2023-08-24T02:57:36;101462.78;;;20.77;61.18
21706;BME280;11014;53.076;18.208;2023-08-24T03:00:06;101462.53;;;20.73;61.23
21706;BME280;11014;53.076;18.208;2023-08-24T03:02:35;101462.53;;;20.73;61.26
21706;BME280;11014;53.076;18.208;2023-08-24T03:05:05;101455.44;;;20.72;60.98
21706;BME280;11014;53.076;18.208;2023-08-24T03:07:34;101465.84;;;20.65;61.33
21706;BME280;11014;53.076;18.208;2023-08-24T03:10:02;101457.66;;;20.60;61.38
21706;BME280;11014;53.076;18.208;2023-08-24T03:12:33;101457.66;;;20.60;61.39
21706;BME280;11014;53.076;18.208;2023-08-24T03:15:01;101464.72;;;20.61;61.74
21706;BME280;11014;53.076;18.208;2023-08-24T03:17:30;101455.47;;;20.62;61.37
21706;BME280;11014;53.076;18.208;2023-08-24T03:19:58;101465.03;;;20.59;61.72
21706;BME280;11014;53.076;18.208;2023-08-24T03:22:27;101460.38;;;20.55;61.80
21706;BME280;11014;53.076;18.208;2023-08-24T03:24:55;101459.84;;;20.53;61.93
21706;BME280;11014;53.076;18.208;2023-08-24T03:27:24;101460.94;;;20.57;61.77
21706;BME280;11014;53.076;18.208;2023-08-24T03:29:53;101466.38;;;20.62;61.68
21706;BME280;11014;53.076;18.208;2023-08-24T03:32:22;101462.53;;;20.63;61.86
21706;BME280;11014;53.076;18.208;2023-08-24T03:34:58;101462.81;;;20.66;62.09
21706;BME280;11014;53.076;18.208;2023-08-24T03:37:26;101459.25;;;20.71;61.96
21706;BME280;11014;53.076;18.208;2023-08-24T03:39:56;101464.16;;;20.74;61.56
21706;BME280;11014;53.076;18.208;2023-08-24T03:42:25;101465.78;;;20.75;61.61
21706;BME280;11014;53.076;18.208;2023-08-24T03:44:53;101457.59;;;20.75;61.74
21706;BME280;11014;53.076;18.208;2023-08-24T03:47:21;101464.16;;;20.74;61.72
21706;BME280;11014;53.076;18.208;2023-08-24T03:49:50;101460.88;;;20.72;61.82
21706;BME280;11014;53.076;18.208;2023-08-24T03:52:19;101458.44;;;20.71;62.28
21706;BME280;11014;53.076;18.208;2023-08-24T03:54:47;101451.63;;;20.73;62.41
21706;BME280;11014;53.076;18.208;2023-08-24T03:57:16;101456.53;;;20.76;62.25
21706;BME280;11014;53.076;18.208;2023-08-24T03:59:44;101450.50;;;20.79;62.15
21706;BME280;11014;53.076;18.208;2023-08-24T04:02:13;101460.84;;;20.82;61.97
21706;BME280;11014;53.076;18.208;2023-08-24T04:04:41;101454.84;;;20.85;61.83
21706;BME280;11014;53.076;18.208;2023-08-24T04:07:10;101458.13;;;20.87;62.03
21706;BME280;11014;53.076;18.208;2023-08-24T04:09:40;101458.13;;;20.87;61.99
21706;BME280;11014;53.076;18.208;2023-08-24T04:12:11;101461.38;;;20.89;61.53
21706;BME280;11014;53.076;18.208;2023-08-24T04:14:39;101468.47;;;20.90;61.95
21706;BME280;11014;53.076;18.208;2023-08-24T04:17:08;101474.19;;;20.94;61.59
21706;BME280;11014;53.076;18.208;2023-08-24T04:19:37;101470.09;;;20.96;62.05
21706;BME280;11014;53.076;18.208;2023-08-24T04:22:06;101467.66;;;20.95;61.80
21706;BME280;11014;53.076;18.208;2023-08-24T04:24:35;101475.31;;;20.93;62.15
21706;BME280;11014;53.076;18.208;2023-08-24T04:27:03;101477.78;;;20.89;62.43
21706;BME280;11014;53.076;18.208;2023-08-24T04:29:32;101479.38;;;20.90;62.59
21706;BME280;11014;53.076;18.208;2023-08-24T04:32:01;101487.31;;;20.92;62.53
21706;BME280;11014;53.076;18.208;2023-08-24T04:34:29;101491.41;;;20.94;62.66
21706;BME280;11014;53.076;18.208;2023-08-24T04:36:58;101490.31;;;20.95;62.72
21706;BME280;11014;53.076;18.208;2023-08-24T04:39:26;101492.22;;;20.95;62.44
21706;BME280;11014;53.076;18.208;2023-08-24T04:41:55;101494.97;;;20.95;62.65
21706;BME280;11014;53.076;18.208;2023-08-24T04:44:24;101492.50;;;20.98;62.56
21706;BME280;11014;53.076;18.208;2023-08-24T04:46:53;101483.16;;;21.04;62.50
21706;BME280;11014;53.076;18.208;2023-08-24T04:49:25;101485.66;;;21.11;62.69
21706;BME280;11014;53.076;18.208;2023-08-24T04:51:54;101486.69;;;21.15;62.67
21706;BME280;11014;53.076;18.208;2023-08-24T04:54:22;101474.41;;;21.17;62.39
21706;BME280;11014;53.076;18.208;2023-08-24T04:56:51;101473.84;;;21.20;62.28
21706;BME280;11014;53.076;18.208;2023-08-24T04:59:19;101480.41;;;21.24;62.43
21706;BME280;11014;53.076;18.208;2023-08-24T05:01:48;101470.53;;;21.28;62.32
21706;BME280;11014;53.076;18.208;2023-08-24T05:04:16;101471.03;;;21.36;62.22
21706;BME280;11014;53.076;18.208;2023-08-24T05:06:45;101475.41;;;21.42;62.08
21706;BME280;11014;53.076;18.208;2023-08-24T05:09:13;101472.63;;;21.47;62.03
21706;BME280;11014;53.076;18.208;2023-08-24T05:11:43;101477.50;;;21.55;62.03
21706;BME280;11014;53.076;18.208;2023-08-24T05:14:11;101482.38;;;21.63;61.91
21706;BME280;11014;53.076;18.208;2023-08-24T05:16:42;101482.81;;;21.75;61.95
21706;BME280;11014;53.076;18.208;2023-08-24T05:19:11;101491.00;;;21.80;61.99
21706;BME280;11014;53.076;18.208;2023-08-24T05:21:40;101487.97;;;21.87;61.88
21706;BME280;11014;53.076;18.208;2023-08-24T05:24:08;101485.97;;;21.97;61.92
21706;BME280;11014;53.076;18.208;2023-08-24T05:26:37;101494.34;;;22.11;61.52
21706;BME280;11014;53.076;18.208;2023-08-24T05:29:05;101494.00;;;22.22;61.47
21706;BME280;11014;53.076;18.208;2023-08-24T05:31:34;101488.47;;;22.27;60.99
21706;BME280;11014;53.076;18.208;2023-08-24T05:34:03;101489.75;;;22.35;60.54
21706;BME280;11014;53.076;18.208;2023-08-24T05:36:32;101501.19;;;22.42;60.48
21706;BME280;11014;53.076;18.208;2023-08-24T05:39:00;101501.44;;;22.46;60.26
21706;BME280;11014;53.076;18.208;2023-08-24T05:41:34;101507.41;;;22.53;60.45
21706;BME280;11014;53.076;18.208;2023-08-24T05:44:02;101495.28;;;22.59;60.06
21706;BME280;11014;53.076;18.208;2023-08-24T05:48:59;101506.66;;;22.76;59.90
21706;BME280;11014;53.076;18.208;2023-08-24T05:51:29;101502.22;;;22.80;60.07
21706;BME280;11014;53.076;18.208;2023-08-24T05:53:57;101507.13;;;22.83;59.92
21706;BME280;11014;53.076;18.208;2023-08-24T05:56:26;101498.84;;;22.88;59.68
21706;BME280;11014;53.076;18.208;2023-08-24T05:58:55;101504.81;;;22.95;59.17
21706;BME280;11014;53.076;18.208;2023-08-24T06:01:24;101502.53;;;23.02;59.35
21706;BME280;11014;53.076;18.208;2023-08-24T06:03:53;101508.75;;;23.08;59.06
21706;BME280;11014;53.076;18.208;2023-08-24T06:06:21;101511.66;;;23.16;58.96
21706;BME280;11014;53.076;18.208;2023-08-24T06:08:50;101502.78;;;23.24;58.79
21706;BME280;11014;53.076;18.208;2023-08-24T06:11:19;101508.97;;;23.35;58.54
21706;BME280;11014;53.076;18.208;2023-08-24T06:13:47;101511.31;;;23.46;58.18
21706;BME280;11014;53.076;18.208;2023-08-24T06:16:16;101514.50;;;23.53;57.63
21706;BME280;11014;53.076;18.208;2023-08-24T06:18:44;101504.19;;;23.64;57.54
21706;BME280;11014;53.076;18.208;2023-08-24T06:21:13;101511.47;;;23.74;57.53
21706;BME280;11014;53.076;18.208;2023-08-24T06:23:41;101511.91;;;23.81;56.94
21706;BME280;11014;53.076;18.208;2023-08-24T06:26:10;101508.50;;;23.89;56.50
21706;BME280;11014;53.076;18.208;2023-08-24T06:28:38;101508.31;;;23.99;55.88
21706;BME280;11014;53.076;18.208;2023-08-24T06:31:07;101507.13;;;24.05;55.53
21706;BME280;11014;53.076;18.208;2023-08-24T06:38:54;101505.97;;;24.43;54.70
21706;BME280;11014;53.076;18.208;2023-08-24T06:41:23;101506.88;;;24.39;53.57
21706;BME280;11014;53.076;18.208;2023-08-24T06:43:51;101509.31;;;24.40;53.44
21706;BME280;11014;53.076;18.208;2023-08-24T06:46:22;101510.75;;;24.51;53.54
21706;BME280;11014;53.076;18.208;2023-08-24T06:48:50;101515.28;;;24.61;53.34
21706;BME280;11014;53.076;18.208;2023-08-24T06:51:19;101508.75;;;24.70;53.13
21706;BME280;11014;53.076;18.208;2023-08-24T06:53:47;101516.25;;;24.84;53.02
21706;BME280;11014;53.076;18.208;2023-08-24T06:56:17;101504.56;;;24.92;51.78
21706;BME280;11014;53.076;18.208;2023-08-24T06:58:48;101506.78;;;25.03;51.58
21706;BME280;11014;53.076;18.208;2023-08-24T07:01:18;101510.84;;;25.06;51.27
21706;BME280;11014;53.076;18.208;2023-08-24T07:03:47;101510.13;;;25.14;51.32
21706;BME280;11014;53.076;18.208;2023-08-24T07:06:16;101510.44;;;25.26;50.75
21706;BME280;11014;53.076;18.208;2023-08-24T07:08:44;101515.53;;;25.32;49.93
21706;BME280;11014;53.076;18.208;2023-08-24T07:11:13;101519.00;;;25.38;50.45
21706;BME280;11014;53.076;18.208;2023-08-24T07:13:45;101524.19;;;25.53;49.99
21706;BME280;11014;53.076;18.208;2023-08-24T07:16:14;101513.03;;;25.72;49.84
21706;BME280;11014;53.076;18.208;2023-08-24T07:18:44;101519.09;;;25.82;49.11
21706;BME280;11014;53.076;18.208;2023-08-24T07:21:13;101518.91;;;25.92;48.37
21706;BME280;11014;53.076;18.208;2023-08-24T07:23:43;101513.63;;;26.05;48.29
21706;BME280;11014;53.076;18.208;2023-08-24T07:26:12;101517.16;;;26.19;48.16
21706;BME280;11014;53.076;18.208;2023-08-24T07:28:40;101522.03;;;26.44;46.29
21706;BME280;11014;53.076;18.208;2023-08-24T07:31:10;101508.66;;;26.60;44.85
21706;BME280;11014;53.076;18.208;2023-08-24T07:33:42;101514.72;;;26.70;44.29
21706;BME280;11014;53.076;18.208;2023-08-24T07:36:13;101526.13;;;26.77;43.12
21706;BME280;11014;53.076;18.208;2023-08-24T07:38:42;101522.25;;;26.78;42.52
21706;BME280;11014;53.076;18.208;2023-08-24T07:41:10;101522.47;;;26.90;43.31
21706;BME280;11014;53.076;18.208;2023-08-24T07:43:40;101520.19;;;26.92;42.71
21706;BME280;11014;53.076;18.208;2023-08-24T07:46:08;101519.91;;;27.02;43.61
21706;BME280;11014;53.076;18.208;2023-08-24T07:48:37;101520.13;;;27.15;43.51
21706;BME280;11014;53.076;18.208;2023-08-24T07:51:07;101522.94;;;27.32;43.32
21706;BME280;11014;53.076;18.208;2023-08-24T07:53:36;101520.56;;;27.47;44.15
21706;BME280;11014;53.076;18.208;2023-08-24T07:56:04;101518.13;;;27.63;43.13
21706;BME280;11014;53.076;18.208;2023-08-24T07:58:33;101521.25;;;27.79;42.34
21706;BME280;11014;53.076;18.208;2023-08-24T08:01:01;101532.78;;;27.89;41.96
21706;BME280;11014;53.076;18.208;2023-08-24T08:03:30;101518.19;;;28.06;42.89
21706;BME280;11014;53.076;18.208;2023-08-24T08:05:59;101521.75;;;28.23;42.26
21706;BME280;11014;53.076;18.208;2023-08-24T08:08:28;101522.38;;;28.38;41.91
21706;BME280;11014;53.076;18.208;2023-08-24T08:11:01;101530.00;;;28.49;40.55
21706;BME280;11014;53.076;18.208;2023-08-24T08:13:30;101542.16;;;28.57;40.08
21706;BME280;11014;53.076;18.208;2023-08-24T08:16:01;101537.56;;;28.61;40.80
21706;BME280;11014;53.076;18.208;2023-08-24T08:18:31;101534.38;;;29.05;40.80
21706;BME280;11014;53.076;18.208;2023-08-24T08:21:00;101533.94;;;28.86;39.79
21706;BME280;11014;53.076;18.208;2023-08-24T08:23:30;101541.50;;;28.77;38.95
21706;BME280;11014;53.076;18.208;2023-08-24T08:25:58;101540.88;;;28.63;38.92
21706;BME280;11014;53.076;18.208;2023-08-24T08:28:27;101535.66;;;28.53;40.26
21706;BME280;11014;53.076;18.208;2023-08-24T08:30:58;101526.88;;;28.68;38.86
21706;BME280;11014;53.076;18.208;2023-08-24T08:33:26;101526.53;;;28.61;38.65
21706;BME280;11014;53.076;18.208;2023-08-24T08:35:56;101539.22;;;28.62;38.34
21706;BME280;11014;53.076;18.208;2023-08-24T08:38:24;101535.97;;;28.60;38.22
21706;BME280;11014;53.076;18.208;2023-08-24T08:41:03;101537.13;;;28.67;37.45
21706;BME280;11014;53.076;18.208;2023-08-24T08:43:34;101534.00;;;28.69;37.60
21706;BME280;11014;53.076;18.208;2023-08-24T08:46:02;101534.16;;;28.81;37.89
21706;BME280;11014;53.076;18.208;2023-08-24T08:48:32;101546.19;;;28.85;37.31
21706;BME280;11014;53.076;18.208;2023-08-24T08:51:02;101542.16;;;28.74;37.75
21706;BME280;11014;53.076;18.208;2023-08-24T08:53:32;101538.00;;;28.89;38.39
21706;BME280;11014;53.076;18.208;2023-08-24T08:56:01;101538.28;;;29.04;37.34
21706;BME280;11014;53.076;18.208;2023-08-24T08:58:34;101545.66;;;29.21;37.07
21706;BME280;11014;53.076;18.208;2023-08-24T09:01:04;101547.00;;;29.23;36.34
21706;BME280;11014;53.076;18.208;2023-08-24T09:03:34;101547.50;;;29.25;37.05
21706;BME280;11014;53.076;18.208;2023-08-24T09:06:03;101546.00;;;29.28;36.53
21706;BME280;11014;53.076;18.208;2023-08-24T09:08:33;101541.56;;;29.35;37.07
21706;BME280;11014;53.076;18.208;2023-08-24T09:11:01;101534.97;;;29.49;37.30
21706;BME280;11014;53.076;18.208;2023-08-24T09:13:31;101538.63;;;29.61;37.57
21706;BME280;11014;53.076;18.208;2023-08-24T09:16:07;101530.44;;;29.65;35.84
21706;BME280;11014;53.076;18.208;2023-08-24T09:18:39;101523.41;;;29.67;36.61
21706;BME280;11014;53.076;18.208;2023-08-24T09:21:17;101530.53;;;29.77;36.51
21706;BME280;11014;53.076;18.208;2023-08-24T09:23:54;101535.00;;;29.90;36.27
21706;BME280;11014;53.076;18.208;2023-08-24T09:26:30;101528.13;;;29.96;35.24
21706;BME280;11014;53.076;18.208;2023-08-24T09:29:00;101527.28;;;29.75;35.40
21706;BME280;11014;53.076;18.208;2023-08-24T09:31:36;101522.69;;;29.79;35.84
21706;BME280;11014;53.076;18.208;2023-08-24T09:34:06;101512.94;;;29.73;34.81
21706;BME280;11014;53.076;18.208;2023-08-24T09:36:36;101512.94;;;29.73;35.54
21706;BME280;11014;53.076;18.208;2023-08-24T09:39:05;101518.41;;;29.90;35.81
21706;BME280;11014;53.076;18.208;2023-08-24T09:41:43;101511.50;;;29.96;35.08
21706;BME280;11014;53.076;18.208;2023-08-24T09:44:13;101516.28;;;29.87;35.06
21706;BME280;11014;53.076;18.208;2023-08-24T09:46:43;101517.47;;;29.86;35.73
21706;BME280;11014;53.076;18.208;2023-08-24T09:49:12;101520.22;;;29.86;35.12
21706;BME280;11014;53.076;18.208;2023-08-24T09:51:41;101507.31;;;29.90;34.40
21706;BME280;11014;53.076;18.208;2023-08-24T09:59:25;101501.41;;;30.45;33.81
21706;BME280;11014;53.076;18.208;2023-08-24T10:01:56;101504.56;;;30.43;33.90
21706;BME280;11014;53.076;18.208;2023-08-24T10:04:33;101498.56;;;30.53;34.78
21706;BME280;11014;53.076;18.208;2023-08-24T10:07:11;101492.47;;;30.60;33.12
21706;BME280;11014;53.076;18.208;2023-08-24T10:10:00;101497.19;;;30.60;33.33
21706;BME280;11014;53.076;18.208;2023-08-24T10:12:38;101495.00;;;30.65;34.05
21706;BME280;11014;53.076;18.208;2023-08-24T10:15:09;101482.84;;;30.70;34.07
21706;BME280;11014;53.076;18.208;2023-08-24T10:17:44;101483.66;;;30.82;33.59
21706;BME280;11014;53.076;18.208;2023-08-24T10:20:14;101480.31;;;30.89;33.53
21706;BME280;11014;53.076;18.208;2023-08-24T10:22:45;101479.97;;;30.90;34.43
21706;BME280;11014;53.076;18.208;2023-08-24T10:25:16;101478.06;;;31.03;34.28
21706;BME280;11014;53.076;18.208;2023-08-24T10:27:45;101468.34;;;31.09;33.95
21706;BME280;11014;53.076;18.208;2023-08-24T10:30:16;101466.44;;;31.37;33.50
21706;BME280;11014;53.076;18.208;2023-08-24T10:32:47;101471.63;;;31.51;33.40
21706;BME280;11014;53.076;18.208;2023-08-24T10:35:18;101466.25;;;31.70;32.39
21706;BME280;11014;53.076;18.208;2023-08-24T10:37:47;101469.56;;;31.88;33.20
21706;BME280;11014;53.076;18.208;2023-08-24T10:40:33;101457.25;;;32.01;32.69
21706;BME280;11014;53.076;18.208;2023-08-24T10:43:03;101460.16;;;31.92;33.09
21706;BME280;11014;53.076;18.208;2023-08-24T10:48:29;101446.34;;;31.96;32.48
21706;BME280;11014;53.076;18.208;2023-08-24T10:54:05;101447.13;;;32.08;31.92
21706;BME280;11014;53.076;18.208;2023-08-24T10:56:38;101448.31;;;31.95;32.34
21706;BME280;11014;53.076;18.208;2023-08-24T10:59:15;101439.84;;;31.76;32.97
21706;BME280;11014;53.076;18.208;2023-08-24T11:04:22;101447.44;;;31.91;33.20
21706;BME280;11014;53.076;18.208;2023-08-24T11:06:52;101434.09;;;31.97;32.83
21706;BME280;11014;53.076;18.208;2023-08-24T11:09:25;101450.03;;;32.00;32.80
21706;BME280;11014;53.076;18.208;2023-08-24T11:12:01;101442.88;;;31.99;33.07
21706;BME280;11014;53.076;18.208;2023-08-24T11:14:31;101436.22;;;31.88;32.80
21706;BME280;11014;53.076;18.208;2023-08-24T11:17:01;101436.22;;;31.88;32.46
21706;BME280;11014;53.076;18.208;2023-08-24T11:19:53;101429.31;;;31.97;33.02
21706;BME280;11014;53.076;18.208;2023-08-24T11:22:23;101430.38;;;32.05;32.93
21706;BME280;11014;53.076;18.208;2023-08-24T11:24:53;101432.38;;;32.51;32.54
21706;BME280;11014;53.076;18.208;2023-08-24T11:27:22;101434.16;;;32.28;31.82
21706;BME280;11014;53.076;18.208;2023-08-24T11:30:09;101427.34;;;32.41;31.94
21706;BME280;11014;53.076;18.208;2023-08-24T11:32:37;101428.06;;;32.38;32.07
21706;BME280;11014;53.076;18.208;2023-08-24T11:35:07;101418.00;;;32.49;31.69
21706;BME280;11014;53.076;18.208;2023-08-24T11:37:39;101412.19;;;32.54;30.89
21706;BME280;11014;53.076;18.208;2023-08-24T11:40:16;101412.53;;;32.53;30.07
21706;BME280;11014;53.076;18.208;2023-08-24T11:42:46;101413.25;;;32.50;30.54
21706;BME280;11014;53.076;18.208;2023-08-24T11:45:15;101415.88;;;32.58;32.32
21706;BME280;11014;53.076;18.208;2023-08-24T11:47:43;101410.31;;;32.58;31.44
21706;BME280;11014;53.076;18.208;2023-08-24T11:50:12;101404.28;;;32.72;31.40
21706;BME280;11014;53.076;18.208;2023-08-24T11:52:43;101404.53;;;32.82;31.43
21706;BME280;11014;53.076;18.208;2023-08-24T11:55:13;101403.97;;;32.93;31.59
21706;BME280;11014;53.076;18.208;2023-08-24T11:57:41;101400.66;;;33.03;31.20
21706;BME280;11014;53.076;18.208;2023-08-24T12:00:11;101394.63;;;33.01;30.62
21706;BME280;11014;53.076;18.208;2023-08-24T12:02:42;101400.56;;;32.99;31.03
21706;BME280;11014;53.076;18.208;2023-08-24T12:05:36;101392.47;;;33.10;30.77
21706;BME280;11014;53.076;18.208;2023-08-24T12:08:05;101389.19;;;32.89;30.65
21706;BME280;11014;53.076;18.208;2023-08-24T12:10:34;101386.88;;;32.75;30.92
21706;BME280;11014;53.076;18.208;2023-08-24T12:13:06;101384.19;;;32.63;30.57
21706;BME280;11014;53.076;18.208;2023-08-24T12:15:37;101390.19;;;32.49;31.12
21706;BME280;11014;53.076;18.208;2023-08-24T12:18:10;101382.41;;;32.55;31.28
21706;BME280;11014;53.076;18.208;2023-08-24T12:20:42;101386.56;;;33.30;30.75
21706;BME280;11014;53.076;18.208;2023-08-24T12:23:36;101382.41;;;33.59;30.72
21706;BME280;11014;53.076;18.208;2023-08-24T12:26:05;101389.13;;;33.77;29.67
21706;BME280;11014;53.076;18.208;2023-08-24T12:28:36;101367.16;;;34.89;29.10
21706;BME280;11014;53.076;18.208;2023-08-24T12:31:05;101365.88;;;36.09;27.65
21706;BME280;11014;53.076;18.208;2023-08-24T12:33:34;101363.53;;;37.38;24.95
21706;BME280;11014;53.076;18.208;2023-08-24T12:36:03;101362.00;;;37.48;24.92
21706;BME280;11014;53.076;18.208;2023-08-24T12:38:31;101364.03;;;36.78;26.13
21706;BME280;11014;53.076;18.208;2023-08-24T12:41:01;101361.00;;;37.01;26.28
21706;BME280;11014;53.076;18.208;2023-08-24T12:43:30;101359.84;;;37.16;25.45
21706;BME280;11014;53.076;18.208;2023-08-24T12:45:59;101364.84;;;37.65;24.73
21706;BME280;11014;53.076;18.208;2023-08-24T12:48:27;101352.13;;;38.63;24.32
21706;BME280;11014;53.076;18.208;2023-08-24T12:50:56;101347.56;;;39.22;23.79
21706;BME280;11014;53.076;18.208;2023-08-24T12:53:24;101340.53;;;39.65;23.53
21706;BME280;11014;53.076;18.208;2023-08-24T12:55:53;101333.91;;;39.17;22.98
21706;BME280;11014;53.076;18.208;2023-08-24T12:58:21;101333.72;;;38.44;23.26
21706;BME280;11014;53.076;18.208;2023-08-24T13:00:53;101336.44;;;37.67;23.77
21706;BME280;11014;53.076;18.208;2023-08-24T13:03:21;101340.41;;;37.55;25.34
21706;BME280;11014;53.076;18.208;2023-08-24T13:05:50;101340.00;;;37.53;25.56
21706;BME280;11014;53.076;18.208;2023-08-24T13:08:19;101340.00;;;37.53;25.51
21706;BME280;11014;53.076;18.208;2023-08-24T13:10:49;101331.41;;;37.07;26.14
21706;BME280;11014;53.076;18.208;2023-08-24T13:13:20;101316.28;;;36.54;26.53
21706;BME280;11014;53.076;18.208;2023-08-24T13:15:49;101317.25;;;36.24;26.70
21706;BME280;11014;53.076;18.208;2023-08-24T13:18:21;101322.16;;;35.94;26.40
21706;BME280;11014;53.076;18.208;2023-08-24T13:20:50;101319.63;;;35.79;27.14
21706;BME280;11014;53.076;18.208;2023-08-24T13:23:46;101310.78;;;35.73;27.21